sensor_id;sensor_type;location;lat;lon;timestamp;P1;durP1;ratioP1;P2;durP2;ratioP2
39948;SDS011;29070;48.102;-1.652;2022-12-07T00:02:33;22.92;;;7.97;;
39948;SDS011;29070;48.102;-1.652;2022-12-07T00:07:33;20.07;;;8.47;;
39948;SDS011;29070;48.102;-1.652;2022-12-07T00:12:34;21.73;;;8.40;;
39948;SDS011;29070;48.102;-1.652;2022-12-07T00:17:34;19.20;;;8.47;;
39948;SDS011;29070;48.102;-1.652;2022-12-07T00:22:34;21.55;;;8.23;;
39948;SDS011;29070;48.102;-1.652;2022-12-07T00:27:35;19.80;;;8.07;;
39948;SDS011;29070;48.102;-1.652;2022-12-07T00:32:35;19.20;;;7.40;;
39948;SDS011;29070;48.102;-1.652;2022-12-07T00:37:36;20.93;;;7.80;;
39948;SDS011;29070;48.102;-1.652;2022-12-07T00:42:36;19.33;;;7.93;;
39948;SDS011;29070;48.102;-1.652;2022-12-07T00:47:36;20.17;;;8.47;;
39948;SDS011;29070;48.102;-1.652;2022-12-07T00:52:37;21.13;;;7.50;;
39948;SDS011;29070;48.102;-1.652;2022-12-07T00:57:37;20.60;;;8.10;;
39948;SDS011;29070;48.102;-1.652;2022-12-07T01:02:37;20.83;;;7.97;;
39948;SDS011;29070;48.102;-1.652;2022-12-07T01:07:38;22.92;;;9.18;;
39948;SDS011;29070;48.102;-1.652;2022-12-07T01:12:38;21.67;;;8.23;;
39948;SDS011;29070;48.102;-1.652;2022-12-07T01:17:39;17.48;;;8.15;;
39948;SDS011;29070;48.102;-1.652;2022-12-07T01:22:40;22.17;;;8.90;;
39948;SDS011;29070;48.102;-1.652;2022-12-07T01:27:41;25.80;;;9.07;;
39948;SDS011;29070;48.102;-1.652;2022-12-07T01:32:42;24.05;;;8.57;;
39948;SDS011;29070;48.102;-1.652;2022-12-07T01:37:42;19.57;;;8.50;;
39948;SDS011;29070;48.102;-1.652;2022-12-07T01:42:42;20.30;;;8.33;;
39948;SDS011;29070;48.102;-1.652;2022-12-07T01:47:47;20.02;;;8.43;;
39948;SDS011;29070;48.102;-1.652;2022-12-07T01:52:54;19.75;;;7.75;;
39948;SDS011;29070;48.102;-1.652;2022-12-07T01:57:58;23.95;;;9.88;;
39948;SDS011;29070;48.102;-1.652;2022-12-07T02:08:36;23.50;;;8.95;;
39948;SDS011;29070;48.102;-1.652;2022-12-07T02:13:37;24.42;;;9.55;;
39948;SDS011;29070;48.102;-1.652;2022-12-07T02:35:05;21.67;;;9.43;;
39948;SDS011;29070;48.102;-1.652;2022-12-07T02:40:22;22.30;;;9.07;;
39948;SDS011;29070;48.102;-1.652;2022-12-07T02:45:28;20.83;;;8.20;;
39948;SDS011;29070;48.102;-1.652;2022-12-07T02:50:31;24.25;;;8.88;;
39948;SDS011;29070;48.102;-1.652;2022-12-07T02:55:34;19.13;;;8.03;;
39948;SDS011;29070;48.102;-1.652;2022-12-07T03:01:25;23.15;;;8.70;;
39948;SDS011;29070;48.102;-1.652;2022-12-07T03:06:23;21.15;;;8.38;;
39948;SDS011;29070;48.102;-1.652;2022-12-07T03:11:42;19.15;;;8.07;;
39948;SDS011;29070;48.102;-1.652;2022-12-07T03:17:08;18.95;;;7.82;;
39948;SDS011;29070;48.102;-1.652;2022-12-07T03:22:14;20.00;;;8.40;;
39948;SDS011;29070;48.102;-1.652;2022-12-07T03:27:23;23.42;;;7.57;;
39948;SDS011;29070;48.102;-1.652;2022-12-07T03:32:33;24.50;;;9.15;;
39948;SDS011;29070;48.102;-1.652;2022-12-07T03:37:45;21.73;;;7.28;;
39948;SDS011;29070;48.102;-1.652;2022-12-07T03:42:52;23.60;;;7.78;;
39948;SDS011;29070;48.102;-1.652;2022-12-07T03:48:03;21.55;;;7.28;;
39948;SDS011;29070;48.102;-1.652;2022-12-07T03:53:34;21.50;;;7.88;;
39948;SDS011;29070;48.102;-1.652;2022-12-07T03:58:39;14.85;;;6.10;;
39948;SDS011;29070;48.102;-1.652;2022-12-07T04:03:41;21.35;;;8.07;;
39948;SDS011;29070;48.102;-1.652;2022-12-07T04:08:42;24.80;;;7.70;;
39948;SDS011;29070;48.102;-1.652;2022-12-07T04:13:42;18.97;;;7.40;;
39948;SDS011;29070;48.102;-1.652;2022-12-07T04:19:01;19.83;;;7.13;;
39948;SDS011;29070;48.102;-1.652;2022-12-07T04:24:01;22.00;;;8.17;;
39948;SDS011;29070;48.102;-1.652;2022-12-07T04:29:02;18.85;;;7.85;;
39948;SDS011;29070;48.102;-1.652;2022-12-07T04:34:02;23.10;;;8.77;;
39948;SDS011;29070;48.102;-1.652;2022-12-07T04:39:04;20.35;;;7.22;;
39948;SDS011;29070;48.102;-1.652;2022-12-07T04:44:05;17.20;;;7.20;;
39948;SDS011;29070;48.102;-1.652;2022-12-07T04:49:07;17.90;;;7.43;;
39948;SDS011;29070;48.102;-1.652;2022-12-07T04:54:08;20.75;;;7.60;;
39948;SDS011;29070;48.102;-1.652;2022-12-07T04:59:09;21.98;;;7.82;;
39948;SDS011;29070;48.102;-1.652;2022-12-07T05:04:11;18.25;;;7.95;;
39948;SDS011;29070;48.102;-1.652;2022-12-07T05:09:12;17.90;;;7.50;;
39948;SDS011;29070;48.102;-1.652;2022-12-07T05:14:16;18.40;;;7.70;;
39948;SDS011;29070;48.102;-1.652;2022-12-07T05:19:18;15.70;;;6.65;;
39948;SDS011;29070;48.102;-1.652;2022-12-07T05:24:19;22.23;;;7.72;;
39948;SDS011;29070;48.102;-1.652;2022-12-07T05:29:20;20.23;;;7.03;;
39948;SDS011;29070;48.102;-1.652;2022-12-07T05:34:20;18.37;;;7.40;;
39948;SDS011;29070;48.102;-1.652;2022-12-07T05:39:20;18.47;;;7.40;;
39948;SDS011;29070;48.102;-1.652;2022-12-07T05:44:21;19.30;;;7.07;;
39948;SDS011;29070;48.102;-1.652;2022-12-07T05:49:21;19.30;;;7.63;;
39948;SDS011;29070;48.102;-1.652;2022-12-07T05:54:21;17.05;;;7.55;;
39948;SDS011;29070;48.102;-1.652;2022-12-07T05:59:22;22.77;;;7.57;;
39948;SDS011;29070;48.102;-1.652;2022-12-07T06:04:23;20.45;;;7.20;;
39948;SDS011;29070;48.102;-1.652;2022-12-07T06:09:26;22.08;;;7.68;;
39948;SDS011;29070;48.102;-1.652;2022-12-07T06:14:27;23.23;;;8.43;;
39948;SDS011;29070;48.102;-1.652;2022-12-07T06:19:28;16.85;;;6.85;;
39948;SDS011;29070;48.102;-1.652;2022-12-07T06:24:28;19.98;;;7.78;;
39948;SDS011;29070;48.102;-1.652;2022-12-07T06:29:28;19.77;;;6.63;;
39948;SDS011;29070;48.102;-1.652;2022-12-07T06:34:29;16.52;;;6.38;;
39948;SDS011;29070;48.102;-1.652;2022-12-07T06:39:29;18.00;;;7.00;;
39948;SDS011;29070;48.102;-1.652;2022-12-07T06:44:30;23.65;;;8.25;;
39948;SDS011;29070;48.102;-1.652;2022-12-07T06:49:30;23.03;;;8.77;;
39948;SDS011;29070;48.102;-1.652;2022-12-07T06:54:30;21.80;;;7.33;;
39948;SDS011;29070;48.102;-1.652;2022-12-07T06:59:31;20.95;;;7.30;;
39948;SDS011;29070;48.102;-1.652;2022-12-07T07:04:31;22.17;;;6.93;;
39948;SDS011;29070;48.102;-1.652;2022-12-07T07:09:32;20.02;;;7.32;;
39948;SDS011;29070;48.102;-1.652;2022-12-07T07:14:32;20.75;;;6.15;;
39948;SDS011;29070;48.102;-1.652;2022-12-07T07:19:32;15.73;;;5.90;;
39948;SDS011;29070;48.102;-1.652;2022-12-07T07:24:33;15.00;;;6.67;;
39948;SDS011;29070;48.102;-1.652;2022-12-07T07:29:33;18.38;;;5.93;;
39948;SDS011;29070;48.102;-1.652;2022-12-07T07:34:34;15.88;;;6.47;;
39948;SDS011;29070;48.102;-1.652;2022-12-07T07:39:34;15.38;;;6.60;;
39948;SDS011;29070;48.102;-1.652;2022-12-07T07:44:34;16.10;;;5.70;;
39948;SDS011;29070;48.102;-1.652;2022-12-07T07:49:35;14.50;;;5.72;;
39948;SDS011;29070;48.102;-1.652;2022-12-07T07:54:35;14.07;;;5.93;;
39948;SDS011;29070;48.102;-1.652;2022-12-07T07:59:35;14.27;;;5.27;;
39948;SDS011;29070;48.102;-1.652;2022-12-07T08:04:36;14.77;;;6.30;;
39948;SDS011;29070;48.102;-1.652;2022-12-07T08:09:36;16.70;;;6.20;;
39948;SDS011;29070;48.102;-1.652;2022-12-07T08:14:37;36.90;;;11.18;;
39948;SDS011;29070;48.102;-1.652;2022-12-07T08:19:37;14.15;;;5.53;;
39948;SDS011;29070;48.102;-1.652;2022-12-07T08:24:38;18.67;;;6.40;;
39948;SDS011;29070;48.102;-1.652;2022-12-07T08:29:38;30.13;;;9.73;;
39948;SDS011;29070;48.102;-1.652;2022-12-07T08:34:38;16.67;;;6.20;;
39948;SDS011;29070;48.102;-1.652;2022-12-07T08:39:39;16.90;;;6.73;;
39948;SDS011;29070;48.102;-1.652;2022-12-07T08:44:39;16.90;;;6.80;;
39948;SDS011;29070;48.102;-1.652;2022-12-07T08:49:41;15.45;;;5.80;;
39948;SDS011;29070;48.102;-1.652;2022-12-07T08:54:45;13.97;;;6.10;;
39948;SDS011;29070;48.102;-1.652;2022-12-07T08:59:45;17.77;;;6.57;;
39948;SDS011;29070;48.102;-1.652;2022-12-07T09:04:46;16.47;;;6.10;;
39948;SDS011;29070;48.102;-1.652;2022-12-07T09:09:46;15.00;;;5.88;;
39948;SDS011;29070;48.102;-1.652;2022-12-07T09:14:46;16.87;;;6.43;;
39948;SDS011;29070;48.102;-1.652;2022-12-07T09:19:47;38.10;;;13.70;;
39948;SDS011;29070;48.102;-1.652;2022-12-07T09:24:47;18.77;;;8.13;;
39948;SDS011;29070;48.102;-1.652;2022-12-07T09:29:47;22.95;;;8.23;;
39948;SDS011;29070;48.102;-1.652;2022-12-07T09:34:48;18.38;;;7.80;;
39948;SDS011;29070;48.102;-1.652;2022-12-07T09:39:48;18.63;;;7.80;;
39948;SDS011;29070;48.102;-1.652;2022-12-07T09:44:49;16.23;;;6.72;;
39948;SDS011;29070;48.102;-1.652;2022-12-07T09:49:49;19.30;;;6.63;;
39948;SDS011;29070;48.102;-1.652;2022-12-07T09:54:50;15.50;;;5.57;;
39948;SDS011;29070;48.102;-1.652;2022-12-07T09:59:51;19.40;;;6.68;;
39948;SDS011;29070;48.102;-1.652;2022-12-07T10:04:51;14.63;;;6.78;;
39948;SDS011;29070;48.102;-1.652;2022-12-07T10:09:52;17.63;;;6.80;;
39948;SDS011;29070;48.102;-1.652;2022-12-07T10:14:53;18.77;;;8.02;;
39948;SDS011;29070;48.102;-1.652;2022-12-07T10:25:18;17.10;;;7.95;;
39948;SDS011;29070;48.102;-1.652;2022-12-07T10:30:20;18.48;;;7.63;;
39948;SDS011;29070;48.102;-1.652;2022-12-07T10:35:25;16.05;;;6.40;;
39948;SDS011;29070;48.102;-1.652;2022-12-07T10:40:32;23.05;;;8.10;;
39948;SDS011;29070;48.102;-1.652;2022-12-07T10:45:34;14.63;;;6.45;;
39948;SDS011;29070;48.102;-1.652;2022-12-07T11:11:50;17.05;;;5.88;;
39948;SDS011;29070;48.102;-1.652;2022-12-07T11:22:06;15.48;;;6.45;;
39948;SDS011;29070;48.102;-1.652;2022-12-07T11:37:33;16.58;;;6.78;;
39948;SDS011;29070;48.102;-1.652;2022-12-07T11:42:38;16.03;;;6.13;;
39948;SDS011;29070;48.102;-1.652;2022-12-07T11:47:46;19.85;;;7.88;;
39948;SDS011;29070;48.102;-1.652;2022-12-07T11:52:58;33.58;;;11.73;;
39948;SDS011;29070;48.102;-1.652;2022-12-07T11:58:49;34.13;;;12.18;;
39948;SDS011;29070;48.102;-1.652;2022-12-07T12:03:34;40.08;;;14.05;;
39948;SDS011;29070;48.102;-1.652;2022-12-07T12:08:39;37.75;;;13.95;;
39948;SDS011;29070;48.102;-1.652;2022-12-07T12:24:28;22.10;;;8.55;;
39948;SDS011;29070;48.102;-1.652;2022-12-07T12:29:37;20.87;;;8.40;;
39948;SDS011;29070;48.102;-1.652;2022-12-07T12:45:20;18.38;;;8.65;;
39948;SDS011;29070;48.102;-1.652;2022-12-07T13:00:41;20.45;;;8.88;;
39948;SDS011;29070;48.102;-1.652;2022-12-07T13:05:42;18.70;;;8.65;;
39948;SDS011;29070;48.102;-1.652;2022-12-07T13:10:47;17.52;;;8.98;;
39948;SDS011;29070;48.102;-1.652;2022-12-07T13:36:51;11.90;;;6.63;;
39948;SDS011;29070;48.102;-1.652;2022-12-07T13:41:55;13.85;;;6.50;;
39948;SDS011;29070;48.102;-1.652;2022-12-07T13:52:18;16.07;;;7.13;;
39948;SDS011;29070;48.102;-1.652;2022-12-07T13:57:20;13.60;;;6.97;;
39948;SDS011;29070;48.102;-1.652;2022-12-07T14:07:28;15.52;;;6.93;;
39948;SDS011;29070;48.102;-1.652;2022-12-07T14:12:29;19.05;;;8.45;;
39948;SDS011;29070;48.102;-1.652;2022-12-07T14:17:30;22.02;;;9.48;;
39948;SDS011;29070;48.102;-1.652;2022-12-07T14:22:37;20.73;;;9.77;;
39948;SDS011;29070;48.102;-1.652;2022-12-07T14:27:39;19.80;;;9.07;;
39948;SDS011;29070;48.102;-1.652;2022-12-07T14:32:47;18.40;;;9.45;;
39948;SDS011;29070;48.102;-1.652;2022-12-07T14:37:51;21.80;;;9.52;;
39948;SDS011;29070;48.102;-1.652;2022-12-07T14:43:02;20.17;;;9.47;;
39948;SDS011;29070;48.102;-1.652;2022-12-07T14:48:05;19.10;;;8.60;;
39948;SDS011;29070;48.102;-1.652;2022-12-07T14:58:15;17.95;;;8.32;;
39948;SDS011;29070;48.102;-1.652;2022-12-07T15:03:17;21.73;;;8.20;;
39948;SDS011;29070;48.102;-1.652;2022-12-07T15:08:18;23.05;;;9.70;;
39948;SDS011;29070;48.102;-1.652;2022-12-07T15:13:18;22.95;;;9.25;;
39948;SDS011;29070;48.102;-1.652;2022-12-07T15:18:37;18.25;;;8.75;;
39948;SDS011;29070;48.102;-1.652;2022-12-07T15:23:37;22.00;;;9.20;;
39948;SDS011;29070;48.102;-1.652;2022-12-07T15:28:38;21.80;;;8.20;;
39948;SDS011;29070;48.102;-1.652;2022-12-07T15:33:38;20.23;;;8.67;;
39948;SDS011;29070;48.102;-1.652;2022-12-07T15:38:38;19.25;;;9.20;;
39948;SDS011;29070;48.102;-1.652;2022-12-07T15:43:39;18.40;;;9.63;;
39948;SDS011;29070;48.102;-1.652;2022-12-07T15:48:58;19.92;;;8.70;;
39948;SDS011;29070;48.102;-1.652;2022-12-07T15:53:58;24.02;;;9.07;;
39948;SDS011;29070;48.102;-1.652;2022-12-07T15:58:59;19.80;;;8.57;;
39948;SDS011;29070;48.102;-1.652;2022-12-07T16:03:59;20.33;;;9.85;;
39948;SDS011;29070;48.102;-1.652;2022-12-07T16:09:00;18.92;;;9.68;;
39948;SDS011;29070;48.102;-1.652;2022-12-07T16:14:01;20.52;;;9.52;;
39948;SDS011;29070;48.102;-1.652;2022-12-07T16:19:01;18.85;;;9.10;;
39948;SDS011;29070;48.102;-1.652;2022-12-07T16:24:02;28.05;;;11.27;;
39948;SDS011;29070;48.102;-1.652;2022-12-07T16:29:05;27.75;;;11.80;;
39948;SDS011;29070;48.102;-1.652;2022-12-07T16:34:05;26.63;;;11.10;;
39948;SDS011;29070;48.102;-1.652;2022-12-07T16:39:07;32.75;;;14.02;;
39948;SDS011;29070;48.102;-1.652;2022-12-07T16:44:10;25.38;;;12.02;;
39948;SDS011;29070;48.102;-1.652;2022-12-07T16:49:13;30.42;;;12.05;;
39948;SDS011;29070;48.102;-1.652;2022-12-07T16:54:17;24.00;;;10.80;;
39948;SDS011;29070;48.102;-1.652;2022-12-07T16:59:17;26.33;;;11.43;;
39948;SDS011;29070;48.102;-1.652;2022-12-07T17:04:18;27.30;;;13.20;;
39948;SDS011;29070;48.102;-1.652;2022-12-07T17:09:18;28.83;;;12.10;;
39948;SDS011;29070;48.102;-1.652;2022-12-07T17:14:18;32.20;;;13.73;;
39948;SDS011;29070;48.102;-1.652;2022-12-07T17:19:37;37.47;;;15.13;;
39948;SDS011;29070;48.102;-1.652;2022-12-07T17:24:38;35.63;;;14.50;;
39948;SDS011;29070;48.102;-1.652;2022-12-07T17:29:38;31.20;;;15.68;;
39948;SDS011;29070;48.102;-1.652;2022-12-07T17:34:39;34.55;;;15.73;;
39948;SDS011;29070;48.102;-1.652;2022-12-07T17:39:39;43.63;;;16.83;;
39948;SDS011;29070;48.102;-1.652;2022-12-07T17:44:40;40.35;;;17.17;;
39948;SDS011;29070;48.102;-1.652;2022-12-07T17:49:40;42.90;;;18.30;;
39948;SDS011;29070;48.102;-1.652;2022-12-07T17:54:41;44.37;;;17.73;;
39948;SDS011;29070;48.102;-1.652;2022-12-07T17:59:42;51.88;;;19.40;;
39948;SDS011;29070;48.102;-1.652;2022-12-07T18:04:42;53.65;;;21.30;;
39948;SDS011;29070;48.102;-1.652;2022-12-07T18:09:43;48.60;;;19.02;;
39948;SDS011;29070;48.102;-1.652;2022-12-07T18:14:43;41.17;;;18.60;;
39948;SDS011;29070;48.102;-1.652;2022-12-07T18:19:44;47.07;;;19.27;;
39948;SDS011;29070;48.102;-1.652;2022-12-07T18:24:44;49.08;;;21.40;;
39948;SDS011;29070;48.102;-1.652;2022-12-07T18:29:44;54.13;;;21.23;;
39948;SDS011;29070;48.102;-1.652;2022-12-07T18:34:45;48.28;;;20.98;;
39948;SDS011;29070;48.102;-1.652;2022-12-07T18:39:45;49.70;;;20.83;;
39948;SDS011;29070;48.102;-1.652;2022-12-07T18:44:46;47.37;;;20.67;;
39948;SDS011;29070;48.102;-1.652;2022-12-07T18:49:46;54.03;;;21.50;;
39948;SDS011;29070;48.102;-1.652;2022-12-07T18:54:46;55.10;;;22.33;;
39948;SDS011;29070;48.102;-1.652;2022-12-07T18:59:47;57.53;;;22.85;;
39948;SDS011;29070;48.102;-1.652;2022-12-07T19:04:48;57.28;;;24.45;;
39948;SDS011;29070;48.102;-1.652;2022-12-07T19:09:49;59.67;;;26.42;;
39948;SDS011;29070;48.102;-1.652;2022-12-07T19:14:49;62.53;;;26.05;;
39948;SDS011;29070;48.102;-1.652;2022-12-07T19:19:49;61.13;;;27.13;;
39948;SDS011;29070;48.102;-1.652;2022-12-07T19:24:51;67.15;;;27.70;;
39948;SDS011;29070;48.102;-1.652;2022-12-07T19:29:52;66.80;;;29.20;;
39948;SDS011;29070;48.102;-1.652;2022-12-07T19:34:53;78.17;;;32.50;;
39948;SDS011;29070;48.102;-1.652;2022-12-07T19:39:55;81.15;;;31.08;;
39948;SDS011;29070;48.102;-1.652;2022-12-07T19:44:55;77.63;;;33.92;;
39948;SDS011;29070;48.102;-1.652;2022-12-07T19:49:56;77.15;;;33.03;;
39948;SDS011;29070;48.102;-1.652;2022-12-07T19:54:56;83.13;;;34.70;;
39948;SDS011;29070;48.102;-1.652;2022-12-07T19:59:56;88.68;;;38.60;;
39948;SDS011;29070;48.102;-1.652;2022-12-07T20:04:57;75.10;;;34.60;;
39948;SDS011;29070;48.102;-1.652;2022-12-07T20:09:58;79.38;;;34.47;;
39948;SDS011;29070;48.102;-1.652;2022-12-07T20:14:58;86.60;;;34.37;;
39948;SDS011;29070;48.102;-1.652;2022-12-07T20:19:59;79.68;;;34.47;;
39948;SDS011;29070;48.102;-1.652;2022-12-07T20:24:59;81.10;;;35.00;;
39948;SDS011;29070;48.102;-1.652;2022-12-07T20:30:00;76.85;;;33.88;;
39948;SDS011;29070;48.102;-1.652;2022-12-07T20:35:00;101.60;;;42.20;;
39948;SDS011;29070;48.102;-1.652;2022-12-07T20:40:01;93.63;;;38.90;;
39948;SDS011;29070;48.102;-1.652;2022-12-07T20:45:02;84.80;;;36.75;;
39948;SDS011;29070;48.102;-1.652;2022-12-07T20:50:05;81.22;;;33.83;;
39948;SDS011;29070;48.102;-1.652;2022-12-07T20:55:06;77.78;;;32.63;;
39948;SDS011;29070;48.102;-1.652;2022-12-07T21:00:06;74.85;;;33.95;;
39948;SDS011;29070;48.102;-1.652;2022-12-07T21:05:07;80.93;;;36.33;;
39948;SDS011;29070;48.102;-1.652;2022-12-07T21:10:08;67.20;;;30.50;;
39948;SDS011;29070;48.102;-1.652;2022-12-07T21:15:09;63.40;;;28.08;;
39948;SDS011;29070;48.102;-1.652;2022-12-07T21:20:12;70.20;;;32.05;;
39948;SDS011;29070;48.102;-1.652;2022-12-07T21:25:12;73.43;;;28.80;;
39948;SDS011;29070;48.102;-1.652;2022-12-07T21:30:13;76.28;;;32.22;;
39948;SDS011;29070;48.102;-1.652;2022-12-07T21:35:13;80.72;;;33.33;;
39948;SDS011;29070;48.102;-1.652;2022-12-07T21:40:13;78.70;;;33.63;;
39948;SDS011;29070;48.102;-1.652;2022-12-07T21:45:14;68.70;;;31.33;;
39948;SDS011;29070;48.102;-1.652;2022-12-07T21:50:14;71.40;;;29.75;;
39948;SDS011;29070;48.102;-1.652;2022-12-07T21:55:15;73.43;;;32.23;;
39948;SDS011;29070;48.102;-1.652;2022-12-07T22:00:15;67.10;;;30.35;;
39948;SDS011;29070;48.102;-1.652;2022-12-07T22:05:16;90.18;;;32.47;;
39948;SDS011;29070;48.102;-1.652;2022-12-07T22:10:16;74.70;;;31.83;;
39948;SDS011;29070;48.102;-1.652;2022-12-07T22:15:27;73.55;;;32.58;;
39948;SDS011;29070;48.102;-1.652;2022-12-07T22:20:28;72.35;;;30.00;;
39948;SDS011;29070;48.102;-1.652;2022-12-07T22:25:28;74.07;;;31.17;;
39948;SDS011;29070;48.102;-1.652;2022-12-07T22:30:28;75.70;;;32.30;;
39948;SDS011;29070;48.102;-1.652;2022-12-07T22:35:29;79.20;;;32.65;;
39948;SDS011;29070;48.102;-1.652;2022-12-07T22:40:30;76.35;;;30.05;;
39948;SDS011;29070;48.102;-1.652;2022-12-07T22:45:30;70.83;;;29.03;;
39948;SDS011;29070;48.102;-1.652;2022-12-07T22:50:30;79.43;;;31.77;;
39948;SDS011;29070;48.102;-1.652;2022-12-07T22:55:31;77.45;;;34.05;;
39948;SDS011;29070;48.102;-1.652;2022-12-07T23:00:32;71.17;;;32.47;;
39948;SDS011;29070;48.102;-1.652;2022-12-07T23:05:32;68.72;;;31.05;;
39948;SDS011;29070;48.102;-1.652;2022-12-07T23:10:33;79.38;;;32.40;;
39948;SDS011;29070;48.102;-1.652;2022-12-07T23:15:34;94.37;;;33.03;;
39948;SDS011;29070;48.102;-1.652;2022-12-07T23:20:35;77.50;;;32.00;;
39948;SDS011;29070;48.102;-1.652;2022-12-07T23:25:35;82.47;;;33.60;;
39948;SDS011;29070;48.102;-1.652;2022-12-07T23:30:36;71.63;;;31.13;;
39948;SDS011;29070;48.102;-1.652;2022-12-07T23:35:36;77.87;;;31.87;;
39948;SDS011;29070;48.102;-1.652;2022-12-07T23:40:36;78.73;;;32.53;;
39948;SDS011;29070;48.102;-1.652;2022-12-07T23:45:37;85.82;;;31.85;;
39948;SDS011;29070;48.102;-1.652;2022-12-07T23:50:37;83.17;;;32.77;;
39948;SDS011;29070;48.102;-1.652;2022-12-07T23:55:43;76.17;;;30.63;;
